createdAt,value
2022-08-26T00:00:44.642Z,6.47
2022-08-26T00:03:19.042Z,6.83
2022-08-26T00:05:51.982Z,7.83
2022-08-26T00:08:24.262Z,7.40
2022-08-26T00:10:56.444Z,7.43
2022-08-26T00:13:34.131Z,7.80
2022-08-26T00:16:08.120Z,7.60
2022-08-26T00:18:43.700Z,7.60
2022-08-26T00:21:15.901Z,7.47
2022-08-26T00:23:48.638Z,7.77
2022-08-26T00:26:20.875Z,7.57
2022-08-26T00:28:53.243Z,8.50
2022-08-26T00:31:25.874Z,9.33
2022-08-26T00:33:59.177Z,9.37
2022-08-26T00:36:31.935Z,8.50
2022-08-26T00:39:07.039Z,8.70
2022-08-26T00:41:40.876Z,8.00
2022-08-26T00:44:12.989Z,8.43
2022-08-26T00:46:50.866Z,8.80
2022-08-26T00:49:42.907Z,8.40
2022-08-26T00:52:19.828Z,7.33
2022-08-26T00:55:03.777Z,7.70
2022-08-26T00:57:42.407Z,7.07
2022-08-26T01:00:20.556Z,8.00
2022-08-26T01:02:57.569Z,7.93
2022-08-26T01:05:32.588Z,7.33
2022-08-26T01:08:04.516Z,7.70
2022-08-26T01:10:37.213Z,7.80
2022-08-26T01:13:11.233Z,6.93
2022-08-26T01:15:48.462Z,6.93
2022-08-26T01:18:25.615Z,7.37
2022-08-26T01:21:27.749Z,7.73
2022-08-26T01:24:13.969Z,8.07
2022-08-26T01:26:46.539Z,7.20
2022-08-26T01:29:20.208Z,7.43
2022-08-26T01:31:56.522Z,7.90
2022-08-26T01:34:35.009Z,8.00
2022-08-26T01:37:16.250Z,7.67
2022-08-26T01:39:54.229Z,7.80
2022-08-26T01:42:28.459Z,7.00
2022-08-26T01:45:18.449Z,6.73
2022-08-26T01:47:59.733Z,7.77
2022-08-26T01:50:36.880Z,6.87
2022-08-26T01:53:13.010Z,7.70
2022-08-26T01:55:53.019Z,6.40
2022-08-26T01:58:36.265Z,6.93
2022-08-26T02:01:12.577Z,7.50
2022-08-26T02:04:15.768Z,6.90
2022-08-26T02:07:02.336Z,7.37
2022-08-26T02:09:41.641Z,6.77
2022-08-26T02:12:16.031Z,6.23
2022-08-26T02:14:59.783Z,7.40
2022-08-26T02:17:43.017Z,7.30
2022-08-26T02:20:19.425Z,7.67
2022-08-26T02:22:52.199Z,7.67
2022-08-26T02:25:57.867Z,7.47
2022-08-26T02:29:03.900Z,6.97
2022-08-26T02:31:41.312Z,7.00
2022-08-26T02:34:21.845Z,7.00
2022-08-26T02:37:07.219Z,7.57
2022-08-26T02:39:42.597Z,6.53
2022-08-26T02:42:15.097Z,6.23
2022-08-26T02:44:47.362Z,7.10
2022-08-26T02:47:20.112Z,7.10
2022-08-26T02:49:57.030Z,6.87
2022-08-26T02:52:29.133Z,6.73
2022-08-26T02:55:01.191Z,6.43
2022-08-26T02:57:35.479Z,7.90
2022-08-26T03:00:11.012Z,6.73
2022-08-26T03:02:45.580Z,6.53
2022-08-26T03:05:19.729Z,7.23
2022-08-26T03:07:53.063Z,6.73
2022-08-26T03:10:26.103Z,7.27
2022-08-26T03:13:00.577Z,6.73
2022-08-26T03:15:37.232Z,7.00
2022-08-26T03:18:11.000Z,7.47
2022-08-26T03:20:44.115Z,6.53
2022-08-26T03:23:17.269Z,7.10
2022-08-26T03:25:51.704Z,7.30
2022-08-26T03:28:24.673Z,7.33
2022-08-26T03:31:00.088Z,8.23
2022-08-26T03:33:32.210Z,7.30
2022-08-26T03:36:06.589Z,7.07
2022-08-26T03:38:38.610Z,8.00
2022-08-26T03:41:12.265Z,7.37
2022-08-26T03:43:44.741Z,7.30
2022-08-26T03:46:20.062Z,7.80
2022-08-26T03:48:52.966Z,6.77
2022-08-26T03:51:24.947Z,7.20
2022-08-26T03:53:57.309Z,7.60
2022-08-26T03:56:33.347Z,8.00
2022-08-26T03:59:07.609Z,8.07
2022-08-26T04:01:39.884Z,7.67
2022-08-26T04:04:12.465Z,7.63
2022-08-26T04:06:47.691Z,8.40
2022-08-26T04:09:21.054Z,8.37
2022-08-26T04:11:53.465Z,7.03
2022-08-26T04:14:27.814Z,8.10
2022-08-26T04:17:01.033Z,7.77
2022-08-26T04:19:35.916Z,8.37
2022-08-26T04:22:08.443Z,7.17
2022-08-26T04:24:41.859Z,7.80
2022-08-26T04:27:13.899Z,8.23
2022-08-26T04:29:46.615Z,8.40
2022-08-26T04:32:20.274Z,8.27
2022-08-26T04:34:52.238Z,9.13
2022-08-26T04:37:24.473Z,9.33
2022-08-26T04:39:56.719Z,9.30
2022-08-26T04:42:29.959Z,9.00
2022-08-26T04:45:05.844Z,9.13
2022-08-26T04:47:42.609Z,9.33
2022-08-26T04:50:15.412Z,8.93
2022-08-26T04:52:51.673Z,9.80
2022-08-26T04:55:28.281Z,8.67
2022-08-26T04:58:15.145Z,9.43
2022-08-26T05:00:49.572Z,9.43
2022-08-26T05:03:25.475Z,9.70
2022-08-26T05:05:58.692Z,8.90
2022-08-26T05:08:34.673Z,9.23
2022-08-26T05:11:07.437Z,8.67
2022-08-26T05:13:42.425Z,9.50
2022-08-26T05:16:16.193Z,10.23
2022-08-26T05:18:48.391Z,9.27
2022-08-26T05:21:23.781Z,10.17
2022-08-26T05:23:57.954Z,8.33
2022-08-26T05:26:31.658Z,9.83
2022-08-26T05:29:04.603Z,10.77
2022-08-26T05:31:37.506Z,9.13
2022-08-26T05:34:10.139Z,8.40
2022-08-26T05:36:42.276Z,9.07
2022-08-26T05:39:14.851Z,9.03
2022-08-26T05:41:47.175Z,8.93
2022-08-26T05:44:21.019Z,9.40
2022-08-26T05:46:55.337Z,8.93
2022-08-26T05:49:27.369Z,8.50
2022-08-26T05:51:59.416Z,10.07
2022-08-26T05:54:33.938Z,9.10
2022-08-26T05:57:06.068Z,8.80
2022-08-26T05:59:39.138Z,9.23
2022-08-26T06:02:11.185Z,9.03
2022-08-26T06:04:45.711Z,8.60
2022-08-26T06:07:18.501Z,9.03
2022-08-26T06:10:32.605Z,8.60
2022-08-26T06:13:11.663Z,8.50
2022-08-26T06:15:47.879Z,8.50
2022-08-26T06:18:27.354Z,8.20
2022-08-26T06:21:33.687Z,8.30
2022-08-26T06:24:30.214Z,8.17
2022-08-26T06:27:21.995Z,8.00
2022-08-26T06:29:55.983Z,8.10
2022-08-26T06:32:28.286Z,8.07
2022-08-26T06:35:01.612Z,7.63
2022-08-26T06:37:33.842Z,7.93
2022-08-26T06:40:07.599Z,8.23
2022-08-26T06:42:40.427Z,8.70
2022-08-26T06:45:12.605Z,7.87
2022-08-26T06:47:45.066Z,7.80
2022-08-26T06:50:21.567Z,7.80
2022-08-26T06:52:54.733Z,7.67
2022-08-26T06:55:29.515Z,8.33
2022-08-26T06:58:02.078Z,8.43
2022-08-26T07:00:38.463Z,7.70
2022-08-26T07:03:14.745Z,7.40
2022-08-26T07:05:47.799Z,7.70
2022-08-26T07:08:22.394Z,7.17
2022-08-26T07:10:55.995Z,8.80
2022-08-26T07:13:30.906Z,8.13
2022-08-26T07:16:04.821Z,8.17
2022-08-26T07:18:40.272Z,7.97
2022-08-26T07:21:16.632Z,6.97
2022-08-26T07:23:56.402Z,7.43
2022-08-26T07:26:45.329Z,7.77
2022-08-26T07:29:18.603Z,7.77
2022-08-26T07:31:51.274Z,7.90
2022-08-26T07:34:24.071Z,7.40
2022-08-26T07:36:57.062Z,7.83
2022-08-26T07:39:31.460Z,7.83
2022-08-26T07:42:07.680Z,7.50
2022-08-26T07:44:43.013Z,7.37
2022-08-26T07:47:24.788Z,7.60
2022-08-26T07:49:58.699Z,6.70
2022-08-26T07:52:31.254Z,7.40
2022-08-26T07:55:04.552Z,8.00
2022-08-26T07:57:38.554Z,7.00
2022-08-26T08:00:15.971Z,6.40
2022-08-26T08:02:49.354Z,6.83
2022-08-26T08:05:23.246Z,7.60
2022-08-26T08:08:26.242Z,6.80
2022-08-26T08:10:59.695Z,6.30
2022-08-26T08:13:32.719Z,7.17
2022-08-26T08:16:05.555Z,6.20
2022-08-26T08:18:38.487Z,5.60
2022-08-26T08:21:21.142Z,6.80
2022-08-26T08:23:57.276Z,6.30
2022-08-26T08:26:29.508Z,6.20
2022-08-26T08:29:01.858Z,6.03
2022-08-26T08:34:29.159Z,6.33
2022-08-26T08:37:02.071Z,5.87
2022-08-26T08:39:36.623Z,5.00
2022-08-26T08:42:31.819Z,5.77
2022-08-26T08:45:34.496Z,5.80
2022-08-26T08:48:19.849Z,6.37
2022-08-26T08:51:08.557Z,6.13
2022-08-26T08:53:56.103Z,5.60
2022-08-26T08:56:33.743Z,6.00
2022-08-26T08:59:27.924Z,6.10
2022-08-26T09:02:11.494Z,5.23
2022-08-26T09:05:20.547Z,5.60
2022-08-26T09:08:06.678Z,5.10
2022-08-26T09:10:49.794Z,5.30
2022-08-26T09:13:27.623Z,5.27
2022-08-26T09:16:07.551Z,5.40
2022-08-26T09:18:50.713Z,6.03
2022-08-26T09:21:40.917Z,5.90
2022-08-26T09:24:13.920Z,5.30
2022-08-26T09:26:48.045Z,5.53
2022-08-26T09:29:22.569Z,6.17
2022-08-26T09:32:20.244Z,5.53
2022-08-26T09:35:02.395Z,4.83
2022-08-26T09:37:42.554Z,6.00
2022-08-26T09:40:20.330Z,5.20
2022-08-26T09:43:15.965Z,5.40
2022-08-26T09:46:10.521Z,5.60
2022-08-26T09:48:51.767Z,5.30
2022-08-26T09:51:31.991Z,6.30
2022-08-26T09:54:05.806Z,6.13
2022-08-26T09:57:16.193Z,5.90
2022-08-26T09:59:51.359Z,5.23
2022-08-26T10:02:39.318Z,6.47
2022-08-26T10:05:19.082Z,6.20
2022-08-26T10:08:16.363Z,6.53
2022-08-26T10:10:57.789Z,6.37
2022-08-26T10:13:36.563Z,6.70
2022-08-26T10:16:20.646Z,6.23
2022-08-26T10:19:09.739Z,7.00
2022-08-26T10:22:25.972Z,7.10
2022-08-26T10:25:28.441Z,7.10
2022-08-26T10:28:18.050Z,6.60
2022-08-26T10:31:18.547Z,7.17
2022-08-26T10:34:13.968Z,6.00
2022-08-26T10:37:15.442Z,6.33
2022-08-26T10:39:57.236Z,6.40
2022-08-26T10:42:49.143Z,7.00
2022-08-26T10:45:31.467Z,6.30
2022-08-26T10:48:10.859Z,6.70
2022-08-26T10:50:47.959Z,6.30
2022-08-26T10:53:25.409Z,6.27
2022-08-26T10:56:58.818Z,5.97
2022-08-26T10:59:43.804Z,6.17
2022-08-26T11:02:49.862Z,6.63
2022-08-26T11:05:23.608Z,6.17
2022-08-26T11:08:31.335Z,6.70
2022-08-26T11:11:03.445Z,5.93
2022-08-26T11:13:57.488Z,6.37
2022-08-26T11:16:46.653Z,6.00
2022-08-26T11:19:57.120Z,6.30
2022-08-26T11:22:37.973Z,6.20
2022-08-26T11:25:27.853Z,5.80
2022-08-26T11:28:44.823Z,5.57
2022-08-26T11:31:25.320Z,5.97
2022-08-26T11:34:17.214Z,6.47
2022-08-26T11:37:16.598Z,6.90
2022-08-26T11:39:56.937Z,5.93
2022-08-26T11:42:44.959Z,6.33
2022-08-26T11:45:25.009Z,6.13
2022-08-26T11:48:26.845Z,6.33
2022-08-26T11:51:09.696Z,5.50
2022-08-26T11:54:09.365Z,6.40
2022-08-26T11:56:49.839Z,6.53
2022-08-26T12:02:17.983Z,5.97
2022-08-26T12:04:53.345Z,5.50
2022-08-26T12:07:29.317Z,6.67
2022-08-26T12:10:06.386Z,6.87
2022-08-26T12:12:40.303Z,6.47
2022-08-26T12:15:17.781Z,5.33
2022-08-26T12:17:54.568Z,5.17
2022-08-26T12:20:45.722Z,5.27
2022-08-26T12:23:36.487Z,5.23
2022-08-26T12:26:35.727Z,5.33
2022-08-26T12:29:20.272Z,6.20
2022-08-26T12:32:24.846Z,6.53
2022-08-26T12:34:57.941Z,7.10
2022-08-26T12:37:35.765Z,7.10
2022-08-26T12:40:27.467Z,7.87
2022-08-26T12:43:34.627Z,6.53
2022-08-26T12:46:15.866Z,7.00
2022-08-26T12:48:49.540Z,6.93
2022-08-26T12:51:42.940Z,7.40
2022-08-26T12:54:40.283Z,7.23
2022-08-26T12:57:37.375Z,7.27
2022-08-26T13:00:28.832Z,7.50
2022-08-26T13:03:04.972Z,6.90
2022-08-26T13:06:31.416Z,7.50
2022-08-26T13:09:29.317Z,6.80
2022-08-26T13:12:02.432Z,7.20
2022-08-26T13:14:35.195Z,6.70
2022-08-26T13:17:07.414Z,6.10
2022-08-26T13:19:40.111Z,7.27
2022-08-26T13:22:13.560Z,6.40
2022-08-26T13:24:46.786Z,6.30
2022-08-26T13:27:20.528Z,5.30
2022-08-26T13:29:57.665Z,6.57
2022-08-26T13:32:32.735Z,6.60
2022-08-26T13:35:05.563Z,6.13
2022-08-26T13:37:38.562Z,6.10
2022-08-26T13:40:14.300Z,8.90
2022-08-26T13:42:49.828Z,7.77
2022-08-26T13:45:22.419Z,7.40
2022-08-26T13:47:54.525Z,6.17
2022-08-26T13:50:26.591Z,6.90
2022-08-26T13:52:59.030Z,7.43
2022-08-26T13:55:31.521Z,7.93
2022-08-26T13:58:03.658Z,6.80
2022-08-26T14:00:36.410Z,6.60
2022-08-26T14:03:13.269Z,7.83
2022-08-26T14:05:45.802Z,7.87
2022-08-26T14:08:19.323Z,6.87
2022-08-26T14:10:52.301Z,6.00
2022-08-26T14:13:24.975Z,6.70
2022-08-26T14:15:59.752Z,6.33
2022-08-26T14:18:41.674Z,7.10
2022-08-26T14:21:14.898Z,6.73
2022-08-26T14:23:47.566Z,8.63
2022-08-26T14:26:28.699Z,6.70
2022-08-26T14:29:04.097Z,7.07
2022-08-26T14:31:37.796Z,6.50
2022-08-26T14:34:11.686Z,7.17
2022-08-26T14:36:44.518Z,6.00
2022-08-26T14:39:16.651Z,6.37
2022-08-26T14:41:54.483Z,6.17
2022-08-26T14:44:31.440Z,5.80
2022-08-26T14:47:06.642Z,6.60
2022-08-26T14:49:39.041Z,6.77
2022-08-26T14:52:11.079Z,7.03
2022-08-26T14:54:43.965Z,5.63
2022-08-26T14:57:16.461Z,6.30
2022-08-26T14:59:50.545Z,6.10
2022-08-26T15:02:32.661Z,7.13
2022-08-26T15:05:06.461Z,6.53
2022-08-26T15:07:40.879Z,6.07
2022-08-26T15:10:16.039Z,6.10
2022-08-26T15:12:49.697Z,7.03
2022-08-26T15:15:21.829Z,6.30
2022-08-26T15:17:53.883Z,6.53
2022-08-26T15:20:26.523Z,6.47
2022-08-26T15:23:06.090Z,6.13
2022-08-26T15:25:38.459Z,6.13
2022-08-26T15:28:13.554Z,7.10
2022-08-26T15:30:46.456Z,7.10
2022-08-26T15:33:18.548Z,6.07
2022-08-26T15:35:50.634Z,6.43
2022-08-26T15:38:22.952Z,7.60
2022-08-26T15:40:55.343Z,7.87
2022-08-26T15:43:29.473Z,8.00
2022-08-26T15:46:02.020Z,6.40
2022-08-26T15:48:34.818Z,6.50
2022-08-26T15:51:08.104Z,7.00
2022-08-26T15:53:58.566Z,6.00
2022-08-26T15:56:34.916Z,6.13
2022-08-26T15:59:08.583Z,6.33
2022-08-26T16:01:42.750Z,6.37
2022-08-26T16:04:15.234Z,6.00
2022-08-26T16:06:51.515Z,6.30
2022-08-26T16:09:27.146Z,7.37
2022-08-26T16:12:01.110Z,8.33
2022-08-26T16:14:33.347Z,8.60
2022-08-26T16:17:05.503Z,7.00
2022-08-26T16:19:37.752Z,7.70
2022-08-26T16:22:09.834Z,6.80
2022-08-26T16:24:41.953Z,6.40
2022-08-26T16:27:14.273Z,6.30
2022-08-26T16:29:46.568Z,6.53
2022-08-26T16:32:18.549Z,8.40
2022-08-26T16:34:56.119Z,8.43
2022-08-26T16:37:29.201Z,7.60
2022-08-26T16:40:01.304Z,8.50
2022-08-26T16:42:35.768Z,7.50
2022-08-26T16:45:09.767Z,6.47
2022-08-26T16:47:42.098Z,6.30
2022-08-26T16:50:15.098Z,6.60
2022-08-26T16:52:55.747Z,6.73
2022-08-26T16:55:27.978Z,5.90
2022-08-26T16:58:00.154Z,6.60
2022-08-26T17:00:33.211Z,6.53
2022-08-26T17:03:05.805Z,7.10
2022-08-26T17:05:38.205Z,5.83
2022-08-26T17:08:13.116Z,6.27
2022-08-26T17:10:47.797Z,6.10
2022-08-26T17:13:28.928Z,5.23
2022-08-26T17:16:10.887Z,4.80
2022-08-26T17:18:43.816Z,4.00
2022-08-26T17:21:16.313Z,3.70
2022-08-26T17:23:50.172Z,2.33
2022-08-26T17:26:23.560Z,2.43
2022-08-26T17:28:56.833Z,2.40
2022-08-26T17:31:30.095Z,2.27
2022-08-26T17:34:04.145Z,2.67
2022-08-26T17:36:36.749Z,2.43
2022-08-26T17:39:11.220Z,2.50
2022-08-26T17:41:44.152Z,2.93
2022-08-26T17:44:17.406Z,2.90
2022-08-26T17:46:49.713Z,3.43
2022-08-26T17:49:22.655Z,3.90
2022-08-26T17:51:58.526Z,4.13
2022-08-26T17:54:31.574Z,5.00
2022-08-26T17:57:05.001Z,6.17
2022-08-26T17:59:43.090Z,5.57
2022-08-26T18:02:16.566Z,6.20
2022-08-26T18:04:49.834Z,6.63
2022-08-26T18:07:22.730Z,6.50
2022-08-26T18:09:55.207Z,5.43
2022-08-26T18:12:27.878Z,6.33
2022-08-26T18:15:04.133Z,6.10
2022-08-26T18:17:39.142Z,7.20
2022-08-26T18:20:15.259Z,6.40
2022-08-26T18:22:49.677Z,5.87
2022-08-26T18:25:23.363Z,6.57
2022-08-26T18:27:55.726Z,6.33
2022-08-26T18:30:28.135Z,7.47
2022-08-26T18:33:01.405Z,6.97
2022-08-26T18:35:39.934Z,6.07
2022-08-26T18:38:16.716Z,5.60
2022-08-26T18:40:49.590Z,6.50
2022-08-26T18:43:22.860Z,6.80
2022-08-26T18:46:06.882Z,6.93
2022-08-26T18:48:41.194Z,7.20
2022-08-26T18:51:19.218Z,7.30
2022-08-26T18:53:55.527Z,6.67
2022-08-26T18:56:28.921Z,7.27
2022-08-26T18:59:02.290Z,7.30
2022-08-26T19:01:37.265Z,7.83
2022-08-26T19:04:15.348Z,7.20
2022-08-26T19:06:50.885Z,7.67
2022-08-26T19:09:26.282Z,6.70
2022-08-26T19:11:59.431Z,7.20
2022-08-26T19:14:32.567Z,7.13
2022-08-26T19:17:05.672Z,6.40
2022-08-26T19:19:38.959Z,6.83
2022-08-26T19:22:11.279Z,6.80
2022-08-26T19:24:43.395Z,7.00
2022-08-26T19:27:15.524Z,6.53
2022-08-26T19:29:47.897Z,6.97
2022-08-26T19:32:24.250Z,6.53
2022-08-26T19:34:56.500Z,6.77
2022-08-26T19:37:28.561Z,7.37
2022-08-26T19:40:01.312Z,7.57
2022-08-26T19:42:34.501Z,6.73
2022-08-26T19:45:24.696Z,7.37
2022-08-26T19:47:59.807Z,7.20
2022-08-26T19:50:34.761Z,8.70
2022-08-26T19:53:06.939Z,7.60
2022-08-26T19:55:39.588Z,7.50
2022-08-26T19:58:12.190Z,8.37
2022-08-26T20:00:44.347Z,7.57
2022-08-26T20:03:16.423Z,7.93
2022-08-26T20:05:49.359Z,7.47
2022-08-26T20:08:22.565Z,7.90
2022-08-26T20:10:55.677Z,9.17
2022-08-26T20:13:33.639Z,8.40
2022-08-26T20:16:07.176Z,8.13
2022-08-26T20:19:00.784Z,8.17
2022-08-26T20:21:52.755Z,6.83
2022-08-26T20:24:26.410Z,8.00
2022-08-26T20:27:05.500Z,8.53
2022-08-26T20:29:40.959Z,8.70
2022-08-26T20:32:13.947Z,9.27
2022-08-26T20:34:46.072Z,8.30
2022-08-26T20:37:21.644Z,8.87
2022-08-26T20:39:55.301Z,9.70
2022-08-26T20:42:27.550Z,8.50
2022-08-26T20:44:59.897Z,9.10
2022-08-26T20:47:32.462Z,9.13
2022-08-26T20:50:05.167Z,9.20
2022-08-26T20:52:39.264Z,8.43
2022-08-26T20:55:11.694Z,8.70
2022-08-26T20:57:43.834Z,8.90
2022-08-26T21:00:18.050Z,9.23
2022-08-26T21:02:53.855Z,9.43
2022-08-26T21:05:27.095Z,9.03
2022-08-26T21:07:59.139Z,9.33
2022-08-26T21:10:31.991Z,7.80
2022-08-26T21:13:05.261Z,9.00
2022-08-26T21:15:38.944Z,8.50
2022-08-26T21:18:11.519Z,9.00
2022-08-26T21:20:44.532Z,9.60
2022-08-26T21:23:16.616Z,10.40
2022-08-26T21:25:49.668Z,8.47
2022-08-26T21:28:21.732Z,9.90
2022-08-26T21:30:53.836Z,9.87
2022-08-26T21:33:25.820Z,9.77
2022-08-26T21:36:01.743Z,9.77
2022-08-26T21:38:36.617Z,9.60
2022-08-26T21:41:18.705Z,9.60
2022-08-26T21:43:53.869Z,11.00
2022-08-26T21:46:30.069Z,11.10
2022-08-26T21:49:04.216Z,10.23
2022-08-26T21:51:42.866Z,9.77
2022-08-26T21:54:18.230Z,10.53
2022-08-26T21:56:50.552Z,11.23
2022-08-26T21:59:22.667Z,11.60
2022-08-26T22:01:56.114Z,12.00
2022-08-26T22:04:28.658Z,12.57
2022-08-26T22:07:01.115Z,13.10
2022-08-26T22:09:33.749Z,12.37
2022-08-26T22:12:09.628Z,12.43
2022-08-26T22:14:43.320Z,11.87
2022-08-26T22:17:17.113Z,13.87
2022-08-26T22:19:49.552Z,12.07
2022-08-26T22:22:23.051Z,11.87
2022-08-26T22:24:55.171Z,12.03
2022-08-26T22:27:27.300Z,13.20
2022-08-26T22:29:59.390Z,13.47
2022-08-26T22:32:32.133Z,13.90
2022-08-26T22:35:28.047Z,13.33
2022-08-26T22:37:58.002Z,13.27
2022-08-26T22:40:30.344Z,13.20
2022-08-26T22:43:04.499Z,13.90
2022-08-26T22:45:42.157Z,15.17
2022-08-26T22:48:21.643Z,13.40
2022-08-26T22:51:00.001Z,14.50
2022-08-26T22:53:33.020Z,13.77
2022-08-26T22:56:09.473Z,15.70
2022-08-26T22:58:42.171Z,15.73
2022-08-26T23:01:16.200Z,15.67
2022-08-26T23:03:48.346Z,14.33
2022-08-26T23:06:20.554Z,15.93
2022-08-26T23:08:53.129Z,17.37
2022-08-26T23:11:25.291Z,16.40
2022-08-26T23:13:57.417Z,18.00
2022-08-26T23:16:37.802Z,18.10
2022-08-26T23:19:14.446Z,20.77
2022-08-26T23:21:49.820Z,20.00
2022-08-26T23:24:22.365Z,21.00
2022-08-26T23:26:54.421Z,20.80
2022-08-26T23:29:27.281Z,21.67
2022-08-26T23:32:00.354Z,22.23
2022-08-26T23:34:52.533Z,21.93
2022-08-26T23:37:33.408Z,24.60
2022-08-26T23:40:16.144Z,25.60
2022-08-26T23:42:53.459Z,26.20
2022-08-26T23:45:27.440Z,26.43
2022-08-26T23:47:59.929Z,26.37
2022-08-26T23:50:51.074Z,27.80
2022-08-26T23:53:43.352Z,27.43
2022-08-26T23:56:17.227Z,28.97
2022-08-26T23:58:49.651Z,29.20
